AZ20 weather

CLOSED Westcor Home Office Heliport
Phoenix, Arizona, United States

Public forecast

Using degrees Fahrenheit for public forecast. Weather courtesy of forecast.io.

Closest aviation weather report (METAR) to Westcor Home Office Heliport

Closest report is Scottsdale Airport, 3.8 nm (7.1 km) ENE. Retrieved 2020/07/12 18:53 UTC (32 minutes ago):

KSDL 121853Z VRB04KT 10SM CLR 39/14 A2986 RMK AO2 SLP079 T03940144

Closest aviation forecast (TAF) to Westcor Home Office Heliport

Closest forecast is Scottsdale Airport, 3.8 nm (7.1 km) ENE. Retrieved 2020/07/12 18:39 UTC (46 minutes ago):

TAF KSDL 121736Z 1218/1318 23006KT P6SM FEW150 FEW250 TEMPO 1221/1301 24010G18KT P6SM FEW150 FEW250 FM130200 03010G20KT P6SM SCT150 BKN250 FM130400 06007KT P6SM FEW120 BKN250 FM130600 VRB04KT P6SM FEW120 BKN250 FM131500 19004KT P6SM FEW120 SCT250